createdAt,value
2023-05-22T00:00:37.081Z,34.64
2023-05-22T00:01:36.778Z,34.43
2023-05-22T00:02:36.854Z,34.54
2023-05-22T00:03:36.801Z,34.48
2023-05-22T00:04:36.733Z,34.32
2023-05-22T00:05:36.862Z,34.48
2023-05-22T00:06:37.128Z,34.59
2023-05-22T00:07:36.700Z,34.48
2023-05-22T00:08:36.685Z,34.48
2023-05-22T00:09:36.690Z,34.48
2023-05-22T00:10:36.805Z,34.43
2023-05-22T00:11:36.689Z,34.48
2023-05-22T00:12:36.640Z,34.43
2023-05-22T00:13:36.628Z,34.59
2023-05-22T00:14:36.603Z,34.54
2023-05-22T00:15:36.599Z,34.48
2023-05-22T00:16:36.619Z,34.54
2023-05-22T00:17:36.617Z,34.48
2023-05-22T00:18:36.555Z,34.64
2023-05-22T00:19:36.636Z,34.54
2023-05-22T00:20:36.696Z,34.48
2023-05-22T00:21:36.508Z,34.64
2023-05-22T00:22:36.482Z,34.54
2023-05-22T00:23:36.479Z,34.48
2023-05-22T00:24:36.459Z,34.54
2023-05-22T00:25:36.479Z,34.48
2023-05-22T00:26:36.445Z,34.64
2023-05-22T00:27:36.420Z,34.70
2023-05-22T00:28:36.410Z,34.48
2023-05-22T00:29:36.406Z,34.70
2023-05-22T00:30:36.585Z,34.43
2023-05-22T00:31:36.370Z,34.48
2023-05-22T00:32:36.437Z,34.48
2023-05-22T00:33:36.362Z,34.48
2023-05-22T00:34:36.513Z,34.54
2023-05-22T00:35:36.355Z,34.48
2023-05-22T00:36:36.312Z,34.59
2023-05-22T00:37:36.297Z,34.48
2023-05-22T00:38:36.278Z,34.64
2023-05-22T00:39:36.281Z,34.43
2023-05-22T00:40:36.349Z,34.48
2023-05-22T00:41:36.271Z,34.59
2023-05-22T00:42:36.216Z,34.48
2023-05-22T00:43:36.213Z,34.48
2023-05-22T00:44:36.197Z,34.70
2023-05-22T00:45:36.190Z,34.54
2023-05-22T00:46:36.249Z,34.48
2023-05-22T00:47:36.197Z,34.48
2023-05-22T00:48:36.146Z,34.54
2023-05-22T00:49:36.127Z,34.48
2023-05-22T00:50:36.221Z,34.64
2023-05-22T00:51:36.097Z,34.54
2023-05-22T00:52:36.092Z,34.48
2023-05-22T00:53:36.083Z,34.64
2023-05-22T00:54:36.062Z,34.70
2023-05-22T00:55:36.066Z,34.75
2023-05-22T00:56:36.040Z,34.59
2023-05-22T00:57:36.048Z,34.43
2023-05-22T00:58:36.005Z,34.48
2023-05-22T00:59:35.999Z,34.48
2023-05-22T01:00:36.224Z,34.59
2023-05-22T01:01:36.324Z,34.59
2023-05-22T01:02:36.020Z,34.48
2023-05-22T01:03:35.976Z,34.48
2023-05-22T01:04:35.926Z,34.48
2023-05-22T01:05:35.918Z,34.54
2023-05-22T01:06:35.906Z,34.32
2023-05-22T01:07:35.892Z,34.48
2023-05-22T01:08:35.875Z,34.59
2023-05-22T01:09:35.863Z,34.48
2023-05-22T01:10:35.862Z,34.48
2023-05-22T01:11:35.840Z,34.54
2023-05-22T01:12:35.824Z,34.48
2023-05-22T01:13:35.831Z,34.38
2023-05-22T01:14:35.794Z,34.48
2023-05-22T01:15:35.781Z,34.54
2023-05-22T01:16:35.794Z,34.54
2023-05-22T01:17:36.163Z,34.43
2023-05-22T01:18:35.749Z,34.70
2023-05-22T01:19:35.883Z,34.80
2023-05-22T01:20:35.726Z,34.48
2023-05-22T01:21:35.709Z,34.54
2023-05-22T01:22:35.689Z,34.59
2023-05-22T01:23:35.685Z,34.48
2023-05-22T01:24:35.665Z,34.48
2023-05-22T01:25:35.675Z,34.48
2023-05-22T01:26:35.635Z,34.32
2023-05-22T01:27:35.627Z,34.48
2023-05-22T01:28:35.610Z,34.59
2023-05-22T01:29:35.620Z,34.75
2023-05-22T01:30:35.587Z,34.43
2023-05-22T01:31:35.572Z,34.43
2023-05-22T01:32:35.626Z,34.75
2023-05-22T01:33:35.651Z,34.48
2023-05-22T01:34:35.552Z,34.38
2023-05-22T01:35:35.526Z,34.48
2023-05-22T01:36:35.508Z,34.54
2023-05-22T01:37:35.495Z,34.48
2023-05-22T01:38:35.495Z,34.43
2023-05-22T01:39:35.477Z,34.48
2023-05-22T01:40:35.454Z,34.59
2023-05-22T01:41:35.450Z,34.48
2023-05-22T01:42:35.427Z,34.43
2023-05-22T01:43:35.434Z,34.48
2023-05-22T01:44:35.410Z,34.48
2023-05-22T01:45:35.466Z,34.59
2023-05-22T01:46:35.379Z,34.43
2023-05-22T01:47:35.403Z,34.48
2023-05-22T01:48:35.358Z,34.54
2023-05-22T01:49:35.336Z,34.86
2023-05-22T01:50:35.326Z,34.97
2023-05-22T01:51:35.314Z,34.54
2023-05-22T01:52:35.325Z,34.48
2023-05-22T01:53:35.289Z,34.54
2023-05-22T01:54:35.322Z,34.64
2023-05-22T01:55:35.349Z,34.38
2023-05-22T01:56:35.252Z,34.48
2023-05-22T01:57:35.241Z,34.54
2023-05-22T01:58:35.225Z,34.64
2023-05-22T01:59:35.214Z,34.43
2023-05-22T02:00:35.196Z,34.48
2023-05-22T02:01:35.255Z,34.48
2023-05-22T02:02:35.208Z,34.54
2023-05-22T02:03:35.184Z,34.48
2023-05-22T02:04:35.135Z,34.48
2023-05-22T02:05:35.133Z,34.48
2023-05-22T02:06:35.109Z,34.48
2023-05-22T02:07:35.098Z,34.43
2023-05-22T02:08:35.086Z,34.54
2023-05-22T02:09:35.074Z,34.75
2023-05-22T02:10:35.061Z,34.54
2023-05-22T02:11:35.051Z,34.48
2023-05-22T02:12:35.037Z,34.48
2023-05-22T02:13:35.025Z,34.64
2023-05-22T02:14:35.019Z,34.48
2023-05-22T02:15:35.039Z,34.75
2023-05-22T02:16:34.978Z,34.48
2023-05-22T02:17:35.022Z,34.64
2023-05-22T02:18:34.952Z,34.64
2023-05-22T02:19:35.013Z,34.54
2023-05-22T02:20:34.929Z,34.48
2023-05-22T02:21:34.970Z,34.48
2023-05-22T02:22:34.906Z,34.54
2023-05-22T02:23:34.894Z,34.54
2023-05-22T02:24:34.888Z,34.48
2023-05-22T02:25:34.877Z,34.43
2023-05-22T02:26:35.054Z,34.48
2023-05-22T02:27:34.839Z,34.54
2023-05-22T02:28:34.825Z,34.48
2023-05-22T02:29:34.811Z,34.59
2023-05-22T02:30:34.810Z,34.54
2023-05-22T02:31:34.819Z,34.54
2023-05-22T02:32:34.890Z,34.43
2023-05-22T02:33:34.981Z,34.48
2023-05-22T02:34:34.754Z,34.64
2023-05-22T02:35:34.739Z,34.43
2023-05-22T02:36:34.736Z,34.64
2023-05-22T02:37:34.717Z,34.59
2023-05-22T02:38:34.696Z,34.48
2023-05-22T02:39:34.695Z,34.59
2023-05-22T02:40:34.672Z,34.48
2023-05-22T02:41:34.664Z,34.32
2023-05-22T02:42:34.643Z,34.70
2023-05-22T02:43:34.628Z,34.48
2023-05-22T02:44:34.616Z,34.54
2023-05-22T02:45:34.614Z,34.48
2023-05-22T02:46:34.647Z,34.43
2023-05-22T02:47:34.626Z,34.38
2023-05-22T02:48:34.564Z,34.48
2023-05-22T02:49:34.581Z,34.48
2023-05-22T02:50:34.564Z,34.43
2023-05-22T02:51:34.520Z,34.48
2023-05-22T02:52:34.512Z,34.54
2023-05-22T02:53:34.500Z,34.48
2023-05-22T02:54:34.484Z,34.48
2023-05-22T02:55:34.467Z,34.64
2023-05-22T02:56:34.458Z,34.38
2023-05-22T02:57:34.442Z,34.54
2023-05-22T02:58:34.427Z,34.54
2023-05-22T02:59:34.424Z,34.54
2023-05-22T03:00:34.410Z,34.43
2023-05-22T03:01:34.453Z,34.59
2023-05-22T03:02:34.571Z,34.54
2023-05-22T03:03:34.508Z,34.38
2023-05-22T03:04:34.355Z,34.59
2023-05-22T03:05:34.376Z,34.48
2023-05-22T03:06:34.360Z,34.48
2023-05-22T03:07:34.310Z,34.64
2023-05-22T03:08:34.301Z,34.54
2023-05-22T03:09:34.312Z,34.43
2023-05-22T03:10:34.265Z,34.48
2023-05-22T03:11:34.480Z,34.48
2023-05-22T03:12:34.244Z,34.48
2023-05-22T03:13:34.236Z,34.54
2023-05-22T03:14:34.227Z,34.48
2023-05-22T03:15:34.217Z,34.48
2023-05-22T03:16:34.277Z,33.30
2023-05-22T03:17:34.191Z,34.59
2023-05-22T03:18:34.173Z,34.43
2023-05-22T03:19:34.192Z,34.54
2023-05-22T03:20:34.140Z,34.48
2023-05-22T03:21:34.156Z,34.43
2023-05-22T03:22:34.109Z,34.48
2023-05-22T03:23:34.103Z,34.38
2023-05-22T03:24:34.289Z,34.54
2023-05-22T03:25:34.077Z,34.54
2023-05-22T03:26:34.069Z,34.54
2023-05-22T03:27:34.046Z,34.64
2023-05-22T03:28:34.065Z,34.59
2023-05-22T03:29:34.037Z,34.32
2023-05-22T03:30:34.024Z,34.48
2023-05-22T03:31:34.011Z,34.54
2023-05-22T03:32:34.051Z,34.48
2023-05-22T03:33:34.022Z,34.27
2023-05-22T03:34:33.966Z,34.48
2023-05-22T03:35:33.964Z,34.54
2023-05-22T03:36:34.039Z,34.54
2023-05-22T03:37:33.943Z,34.48
2023-05-22T03:38:33.907Z,33.30
2023-05-22T03:39:33.893Z,34.43
2023-05-22T03:40:33.877Z,34.54
2023-05-22T03:41:33.879Z,34.48
2023-05-22T03:42:33.861Z,34.54
2023-05-22T03:43:33.840Z,34.48
2023-05-22T03:44:33.845Z,34.59
2023-05-22T03:45:33.855Z,34.59
2023-05-22T03:46:33.840Z,34.43
2023-05-22T03:47:33.829Z,34.48
2023-05-22T03:48:33.793Z,34.48
2023-05-22T03:49:33.777Z,34.59
2023-05-22T03:50:33.747Z,34.48
2023-05-22T03:51:33.750Z,34.48
2023-05-22T03:52:33.729Z,34.54
2023-05-22T03:53:33.736Z,34.54
2023-05-22T03:54:33.706Z,34.48
2023-05-22T03:55:33.697Z,34.48
2023-05-22T03:56:33.696Z,34.59
2023-05-22T03:57:33.663Z,34.43
2023-05-22T03:58:33.643Z,34.48
2023-05-22T03:59:33.638Z,34.43
2023-05-22T04:00:33.621Z,34.27
2023-05-22T04:01:33.613Z,34.48
2023-05-22T04:02:33.650Z,34.48
2023-05-22T04:03:33.644Z,34.59
2023-05-22T04:04:33.824Z,33.46
2023-05-22T04:05:33.630Z,34.48
2023-05-22T04:06:33.536Z,34.48
2023-05-22T04:07:33.525Z,34.59
2023-05-22T04:08:33.508Z,34.54
2023-05-22T04:09:33.528Z,34.54
2023-05-22T04:10:33.492Z,32.55
2023-05-22T04:11:33.473Z,33.35
2023-05-22T04:12:33.459Z,33.30
2023-05-22T04:13:33.453Z,34.54
2023-05-22T04:14:33.434Z,32.39
2023-05-22T04:15:33.424Z,34.48
2023-05-22T04:16:33.443Z,34.59
2023-05-22T04:17:33.663Z,34.48
2023-05-22T04:18:33.376Z,34.59
2023-05-22T04:19:33.424Z,34.54
2023-05-22T04:20:33.350Z,34.59
2023-05-22T04:21:33.339Z,34.70
2023-05-22T04:22:33.337Z,33.35
2023-05-22T04:23:33.317Z,33.30
2023-05-22T04:24:33.296Z,32.39
2023-05-22T04:25:33.306Z,34.54
2023-05-22T04:26:33.282Z,33.30
2023-05-22T04:27:33.459Z,34.48
2023-05-22T04:28:33.252Z,34.64
2023-05-22T04:29:33.244Z,33.46
2023-05-22T04:30:33.218Z,34.54
2023-05-22T04:31:33.227Z,33.41
2023-05-22T04:32:33.232Z,33.30
2023-05-22T04:33:33.173Z,34.54
2023-05-22T04:34:33.164Z,33.46
2023-05-22T04:35:33.165Z,34.43
2023-05-22T04:36:33.145Z,33.35
2023-05-22T04:37:33.130Z,34.54
2023-05-22T04:38:33.115Z,33.30
2023-05-22T04:39:33.102Z,33.35
2023-05-22T04:40:33.089Z,34.59
2023-05-22T04:41:33.094Z,34.48
2023-05-22T04:42:33.058Z,33.30
2023-05-22T04:43:33.039Z,33.57
2023-05-22T04:44:33.030Z,33.19
2023-05-22T04:45:33.153Z,33.30
2023-05-22T04:46:33.060Z,34.48
2023-05-22T04:47:33.043Z,33.41
2023-05-22T04:48:32.980Z,33.30
2023-05-22T04:49:32.963Z,33.35
2023-05-22T04:50:33.087Z,32.33
2023-05-22T04:51:32.942Z,32.33
2023-05-22T04:52:32.921Z,32.28
2023-05-22T04:53:33.056Z,33.03
2023-05-22T04:54:32.896Z,33.25
2023-05-22T04:55:32.883Z,34.54
2023-05-22T04:56:36.997Z,33.25
2023-05-22T04:57:32.877Z,33.25
2023-05-22T04:58:32.849Z,32.50
2023-05-22T04:59:32.826Z,32.39
2023-05-22T05:00:32.845Z,32.50
2023-05-22T05:01:33.642Z,32.33
2023-05-22T05:02:32.934Z,34.59
2023-05-22T05:03:32.836Z,33.41
2023-05-22T05:04:32.773Z,32.50
2023-05-22T05:05:32.747Z,32.33
2023-05-22T05:06:32.737Z,32.33
2023-05-22T05:07:32.723Z,32.39
2023-05-22T05:08:32.953Z,33.30
2023-05-22T05:09:32.702Z,32.33
2023-05-22T05:10:32.683Z,33.35
2023-05-22T05:11:32.670Z,33.30
2023-05-22T05:12:32.653Z,33.46
2023-05-22T05:13:32.663Z,32.33
2023-05-22T05:14:32.628Z,33.25
2023-05-22T05:15:32.610Z,32.39
2023-05-22T05:16:32.651Z,32.33
2023-05-22T05:17:32.591Z,32.50
2023-05-22T05:18:32.873Z,32.39
2023-05-22T05:19:34.776Z,32.44
2023-05-22T05:20:32.546Z,32.33
2023-05-22T05:21:32.535Z,32.33
2023-05-22T05:22:32.525Z,32.55
2023-05-22T05:23:32.506Z,32.44
2023-05-22T05:24:32.491Z,32.39
2023-05-22T05:25:32.472Z,32.33
2023-05-22T05:26:32.462Z,32.28
2023-05-22T05:27:32.455Z,33.30
2023-05-22T05:28:32.447Z,32.39
2023-05-22T05:29:32.450Z,32.44
2023-05-22T05:30:32.434Z,32.39
2023-05-22T05:31:32.405Z,32.50
2023-05-22T05:32:32.431Z,32.33
2023-05-22T05:33:32.373Z,32.33
2023-05-22T05:34:32.368Z,32.33
2023-05-22T05:35:32.345Z,32.33
2023-05-22T05:36:32.337Z,32.50
2023-05-22T05:37:32.322Z,32.55
2023-05-22T05:38:32.307Z,32.33
2023-05-22T05:39:32.291Z,32.33
2023-05-22T05:40:32.278Z,32.33
2023-05-22T05:41:32.260Z,32.33
2023-05-22T05:42:32.286Z,32.39
2023-05-22T05:43:32.237Z,32.33
2023-05-22T05:44:32.228Z,32.33
2023-05-22T05:45:32.237Z,32.39
2023-05-22T05:46:32.283Z,32.39
2023-05-22T05:47:32.242Z,32.33
2023-05-22T05:48:32.178Z,32.33
2023-05-22T05:49:34.934Z,32.44
2023-05-22T05:50:32.155Z,32.28
2023-05-22T05:51:32.217Z,32.50
2023-05-22T05:52:32.121Z,32.50
2023-05-22T05:53:32.106Z,32.33
2023-05-22T05:54:32.102Z,32.07
2023-05-22T05:55:33.899Z,32.33
2023-05-22T05:56:32.071Z,32.44
2023-05-22T05:57:32.057Z,32.44
2023-05-22T05:58:32.045Z,32.33
2023-05-22T05:59:32.139Z,32.28
2023-05-22T06:00:32.020Z,32.39
2023-05-22T06:01:32.141Z,32.33
2023-05-22T06:02:32.023Z,32.39
2023-05-22T06:03:32.123Z,32.33
2023-05-22T06:04:31.954Z,32.28
2023-05-22T06:05:31.994Z,32.39
2023-05-22T06:06:31.931Z,32.33
2023-05-22T06:07:31.918Z,32.33
2023-05-22T06:08:31.904Z,32.23
2023-05-22T06:09:31.894Z,32.33
2023-05-22T06:10:31.880Z,32.28
2023-05-22T06:11:31.871Z,31.21
2023-05-22T06:12:32.031Z,32.50
2023-05-22T06:13:31.862Z,32.33
2023-05-22T06:14:31.828Z,32.33
2023-05-22T06:15:31.814Z,32.33
2023-05-22T06:16:31.896Z,31.21
2023-05-22T06:17:31.882Z,32.39
2023-05-22T06:18:31.780Z,32.33
2023-05-22T06:19:31.846Z,32.33
2023-05-22T06:20:31.757Z,32.33
2023-05-22T06:21:31.732Z,32.39
2023-05-22T06:22:31.746Z,32.44
2023-05-22T06:23:31.707Z,32.23
2023-05-22T06:24:31.694Z,32.28
2023-05-22T06:25:31.684Z,32.44
2023-05-22T06:26:32.060Z,32.50
2023-05-22T06:27:31.659Z,32.12
2023-05-22T06:28:31.644Z,32.50
2023-05-22T06:29:31.642Z,32.33
2023-05-22T06:30:43.440Z,32.39
2023-05-22T06:31:32.629Z,31.21
2023-05-22T06:32:31.828Z,32.33
2023-05-22T06:33:31.700Z,32.39
2023-05-22T06:34:31.627Z,32.33
2023-05-22T06:35:31.555Z,32.33
2023-05-22T06:36:31.543Z,31.31
2023-05-22T06:37:31.566Z,32.39
2023-05-22T06:38:31.519Z,31.15
2023-05-22T06:39:32.200Z,32.33
2023-05-22T06:40:31.534Z,31.31
2023-05-22T06:41:31.467Z,31.31
2023-05-22T06:42:31.457Z,31.04
2023-05-22T06:43:31.440Z,31.37
2023-05-22T06:44:31.431Z,31.15
2023-05-22T06:45:31.497Z,31.21
2023-05-22T06:46:31.512Z,31.21
2023-05-22T06:47:31.406Z,31.26
2023-05-22T06:48:31.377Z,31.15
2023-05-22T06:49:31.458Z,31.15
2023-05-22T06:50:31.353Z,31.21
2023-05-22T06:51:31.342Z,31.26
2023-05-22T06:52:31.323Z,31.31
2023-05-22T06:53:31.322Z,31.21
2023-05-22T06:54:31.301Z,31.15
2023-05-22T06:55:31.638Z,31.21
2023-05-22T06:56:31.284Z,31.21
2023-05-22T06:57:31.263Z,31.04
2023-05-22T06:58:31.487Z,31.21
2023-05-22T06:59:31.226Z,31.15
2023-05-22T07:00:31.221Z,31.21
2023-05-22T07:01:31.240Z,31.21
2023-05-22T07:02:31.279Z,31.15
2023-05-22T07:03:31.184Z,31.21
2023-05-22T07:04:31.171Z,31.21
2023-05-22T07:05:31.363Z,31.47
2023-05-22T07:06:31.162Z,31.21
2023-05-22T07:07:31.138Z,31.15
2023-05-22T07:08:31.116Z,31.31
2023-05-22T07:09:31.101Z,31.31
2023-05-22T07:10:31.381Z,31.15
2023-05-22T07:11:31.079Z,31.04
2023-05-22T07:12:31.058Z,31.26
2023-05-22T07:13:31.044Z,31.21
2023-05-22T07:14:31.030Z,31.21
2023-05-22T07:15:31.020Z,31.21
2023-05-22T07:16:31.080Z,31.15
2023-05-22T07:17:31.007Z,31.15
2023-05-22T07:18:30.983Z,31.15
2023-05-22T07:19:31.056Z,31.15
2023-05-22T07:20:30.958Z,31.15
2023-05-22T07:21:30.963Z,31.21
2023-05-22T07:22:30.925Z,31.10
2023-05-22T07:23:30.918Z,31.15
2023-05-22T07:24:30.911Z,31.21
2023-05-22T07:25:30.888Z,31.15
2023-05-22T07:26:30.874Z,31.15
2023-05-22T07:27:30.864Z,30.40
2023-05-22T07:28:30.850Z,30.24
2023-05-22T07:29:30.838Z,30.08
2023-05-22T07:30:30.820Z,30.13
2023-05-22T07:31:30.831Z,30.19
2023-05-22T07:32:30.840Z,30.19
2023-05-22T07:33:30.784Z,31.15
2023-05-22T07:34:30.784Z,30.13
2023-05-22T07:35:30.749Z,30.19
2023-05-22T07:36:30.739Z,30.19
2023-05-22T07:37:30.780Z,30.19
2023-05-22T07:38:31.170Z,30.40
2023-05-22T07:39:30.707Z,30.24
2023-05-22T07:40:30.697Z,30.40
2023-05-22T07:41:30.676Z,30.13
2023-05-22T07:42:30.670Z,30.19
2023-05-22T07:43:30.659Z,30.24
2023-05-22T07:44:30.638Z,30.24
2023-05-22T07:45:30.931Z,30.19
2023-05-22T07:46:30.652Z,30.19
2023-05-22T07:47:30.603Z,30.19
2023-05-22T07:48:30.585Z,29.59
2023-05-22T07:49:30.568Z,30.24
2023-05-22T07:50:30.664Z,30.19
2023-05-22T07:51:30.545Z,30.24
2023-05-22T07:52:30.546Z,30.13
2023-05-22T07:53:30.536Z,29.49
2023-05-22T07:54:30.708Z,29.86
2023-05-22T07:55:30.494Z,29.54
2023-05-22T07:56:30.484Z,30.13
2023-05-22T07:57:30.472Z,29.65
2023-05-22T07:58:30.459Z,29.65
2023-05-22T07:59:30.455Z,29.59
2023-05-22T08:00:30.434Z,29.59
2023-05-22T08:01:30.416Z,29.59
2023-05-22T08:02:30.517Z,29.59
2023-05-22T08:03:30.506Z,29.65
2023-05-22T08:04:30.438Z,30.24
2023-05-22T08:05:30.406Z,29.59
2023-05-22T08:06:30.349Z,30.24
2023-05-22T08:07:30.342Z,29.59
2023-05-22T08:08:31.806Z,29.17
2023-05-22T08:09:30.456Z,29.59
2023-05-22T08:10:46.392Z,29.22
2023-05-22T08:11:31.337Z,29.22
2023-05-22T08:12:30.283Z,29.33
2023-05-22T08:13:30.356Z,29.59
2023-05-22T08:14:30.252Z,29.76
2023-05-22T08:15:30.231Z,29.59
2023-05-22T08:16:30.414Z,29.70
2023-05-22T08:17:30.235Z,29.33
2023-05-22T08:18:30.500Z,29.38
2023-05-22T08:19:30.265Z,29.43
2023-05-22T08:20:30.232Z,29.65
2023-05-22T08:21:30.179Z,29.54
2023-05-22T08:22:30.143Z,29.54
2023-05-22T08:23:30.291Z,29.22
2023-05-22T08:24:30.120Z,29.70
2023-05-22T08:25:30.136Z,29.65
2023-05-22T08:26:31.465Z,29.22
2023-05-22T08:27:30.075Z,29.17
2023-05-22T08:28:30.070Z,29.70
2023-05-22T08:29:30.051Z,29.22
2023-05-22T08:30:30.077Z,29.59
2023-05-22T08:31:30.141Z,29.17
2023-05-22T08:32:31.380Z,29.65
2023-05-22T08:33:30.009Z,29.43
2023-05-22T08:34:30.048Z,29.22
2023-05-22T08:35:29.982Z,29.22
2023-05-22T08:36:29.975Z,29.65
2023-05-22T08:37:29.954Z,29.54
2023-05-22T08:38:29.950Z,29.27
2023-05-22T08:39:29.934Z,29.22
2023-05-22T08:40:29.965Z,29.17
2023-05-22T08:41:30.483Z,29.22
2023-05-22T08:42:29.945Z,29.22
2023-05-22T08:43:29.990Z,29.22
2023-05-22T08:44:29.929Z,29.27
2023-05-22T08:45:29.925Z,29.17
2023-05-22T08:46:30.015Z,29.22
2023-05-22T08:47:29.952Z,29.11
2023-05-22T08:48:29.876Z,29.33
2023-05-22T08:49:29.839Z,28.84
2023-05-22T08:50:29.806Z,29.22
2023-05-22T08:51:29.781Z,29.27
2023-05-22T08:52:29.827Z,29.17
2023-05-22T08:53:29.759Z,29.17
2023-05-22T08:54:29.746Z,29.22
2023-05-22T08:55:29.745Z,28.79
2023-05-22T08:56:29.857Z,28.79
2023-05-22T08:57:29.735Z,28.84
2023-05-22T08:58:29.701Z,28.84
2023-05-22T08:59:29.692Z,28.79
2023-05-22T09:00:29.686Z,28.95
2023-05-22T09:01:29.848Z,28.79
2023-05-22T09:02:29.694Z,28.79
2023-05-22T09:03:29.801Z,28.79
2023-05-22T09:04:29.628Z,28.74
2023-05-22T09:05:29.618Z,28.84
2023-05-22T09:06:29.618Z,28.95
2023-05-22T09:07:29.594Z,28.90
2023-05-22T09:08:29.584Z,28.79
2023-05-22T09:09:29.599Z,28.20
2023-05-22T09:10:29.551Z,28.20
2023-05-22T09:11:29.593Z,28.25
2023-05-22T09:12:29.528Z,28.68
2023-05-22T09:13:29.575Z,28.90
2023-05-22T09:14:29.510Z,28.90
2023-05-22T09:15:29.501Z,28.25
2023-05-22T09:16:29.538Z,28.25
2023-05-22T09:17:29.490Z,28.79
2023-05-22T09:18:29.465Z,28.25
2023-05-22T09:19:29.521Z,28.79
2023-05-22T09:20:29.435Z,28.25
2023-05-22T09:21:30.628Z,28.25
2023-05-22T09:22:29.470Z,28.20
2023-05-22T09:23:29.403Z,28.31
2023-05-22T09:24:29.395Z,28.25
2023-05-22T09:25:29.386Z,28.31
2023-05-22T09:26:29.368Z,28.20
2023-05-22T09:27:29.356Z,28.20
2023-05-22T09:28:29.343Z,28.25
2023-05-22T09:29:29.365Z,28.36
2023-05-22T09:30:29.319Z,28.25
2023-05-22T09:31:29.473Z,28.25
2023-05-22T09:32:29.331Z,28.25
2023-05-22T09:33:29.291Z,27.93
2023-05-22T09:34:29.269Z,27.88
2023-05-22T09:35:29.263Z,27.82
2023-05-22T09:36:29.252Z,28.04
2023-05-22T09:37:29.240Z,27.82
2023-05-22T09:38:29.236Z,27.82
2023-05-22T09:39:29.220Z,28.25
2023-05-22T09:40:29.206Z,28.25
2023-05-22T09:41:29.199Z,27.71
2023-05-22T09:42:29.188Z,27.71
2023-05-22T09:43:29.169Z,27.88
2023-05-22T09:44:29.153Z,27.82
2023-05-22T09:45:29.165Z,27.93
2023-05-22T09:46:29.181Z,27.82
2023-05-22T09:47:29.177Z,27.71
2023-05-22T09:48:29.120Z,27.50
2023-05-22T09:49:29.104Z,27.77
2023-05-22T09:50:29.087Z,27.88
2023-05-22T09:51:29.075Z,27.55
2023-05-22T09:52:29.062Z,27.82
2023-05-22T09:53:29.056Z,27.88
2023-05-22T09:54:29.090Z,27.66
2023-05-22T09:55:29.040Z,27.88
2023-05-22T09:56:38.600Z,27.45
2023-05-22T09:57:30.033Z,27.50
2023-05-22T09:58:28.992Z,27.50
2023-05-22T09:59:28.994Z,27.50
2023-05-22T10:00:28.968Z,27.55
2023-05-22T10:01:29.064Z,27.50
2023-05-22T10:02:29.020Z,27.34
2023-05-22T10:03:28.946Z,27.34
2023-05-22T10:04:28.953Z,27.50
2023-05-22T10:05:28.923Z,27.45
2023-05-22T10:06:28.904Z,27.45
2023-05-22T10:07:28.893Z,27.50
2023-05-22T10:08:28.977Z,27.71
2023-05-22T10:09:28.873Z,27.45
2023-05-22T10:10:28.854Z,27.39
2023-05-22T10:11:28.850Z,27.55
2023-05-22T10:12:29.034Z,27.45
2023-05-22T10:13:28.829Z,27.02
2023-05-22T10:14:29.640Z,27.50
2023-05-22T10:15:28.810Z,26.91
2023-05-22T10:16:28.854Z,27.02
2023-05-22T10:17:28.915Z,27.50
2023-05-22T10:18:28.763Z,26.75
2023-05-22T10:19:28.804Z,26.80
2023-05-22T10:20:28.764Z,26.96
2023-05-22T10:21:28.742Z,26.91
2023-05-22T10:22:28.730Z,26.91
2023-05-22T10:23:28.714Z,27.45
2023-05-22T10:24:28.700Z,26.86
2023-05-22T10:25:28.704Z,26.91
2023-05-22T10:26:28.682Z,26.96
2023-05-22T10:27:28.670Z,26.91
2023-05-22T10:28:28.653Z,26.86
2023-05-22T10:29:28.646Z,27.02
2023-05-22T10:30:28.637Z,26.86
2023-05-22T10:31:28.626Z,26.86
2023-05-22T10:32:28.656Z,26.91
2023-05-22T10:33:28.778Z,27.02
2023-05-22T10:34:28.607Z,26.96
2023-05-22T10:35:28.580Z,26.91
2023-05-22T10:36:28.573Z,26.59
2023-05-22T10:37:28.565Z,26.48
2023-05-22T10:38:28.639Z,26.91
2023-05-22T10:39:28.545Z,26.59
2023-05-22T10:40:28.540Z,26.53
2023-05-22T10:41:28.537Z,26.96
2023-05-22T10:42:28.517Z,26.48
2023-05-22T10:43:28.499Z,26.86
2023-05-22T10:44:28.788Z,26.48
2023-05-22T10:45:28.595Z,26.48
2023-05-22T10:46:28.607Z,26.48
2023-05-22T10:47:28.479Z,26.48
2023-05-22T10:48:28.449Z,26.48
2023-05-22T10:49:28.551Z,26.48
2023-05-22T10:50:28.418Z,26.05
2023-05-22T10:51:28.415Z,26.69
2023-05-22T10:52:28.389Z,26.53
2023-05-22T10:53:28.378Z,26.48
2023-05-22T10:54:28.365Z,26.48
2023-05-22T10:55:28.355Z,26.48
2023-05-22T10:56:28.351Z,26.48
2023-05-22T10:57:28.342Z,26.48
2023-05-22T10:58:28.354Z,26.48
2023-05-22T10:59:28.313Z,26.43
2023-05-22T11:00:28.312Z,26.53
2023-05-22T11:01:28.325Z,26.59
2023-05-22T11:02:28.360Z,26.10
2023-05-22T11:03:28.361Z,26.48
2023-05-22T11:04:28.301Z,26.10
2023-05-22T11:05:28.369Z,26.10
2023-05-22T11:06:28.236Z,26.00
2023-05-22T11:07:28.225Z,26.10
2023-05-22T11:08:28.199Z,26.10
2023-05-22T11:09:28.194Z,26.10
2023-05-22T11:10:28.180Z,26.10
2023-05-22T11:11:28.179Z,26.26
2023-05-22T11:12:28.157Z,26.21
2023-05-22T11:13:29.252Z,26.16
2023-05-22T11:14:28.147Z,26.10
2023-05-22T11:15:28.135Z,25.51
2023-05-22T11:16:28.175Z,26.21
2023-05-22T11:17:28.203Z,26.10
2023-05-22T11:18:28.095Z,26.10
2023-05-22T11:19:28.134Z,25.51
2023-05-22T11:20:28.071Z,26.16
2023-05-22T11:21:28.181Z,25.51
2023-05-22T11:22:28.047Z,25.41
2023-05-22T11:23:28.060Z,25.67
2023-05-22T11:24:28.065Z,25.24
2023-05-22T11:25:28.030Z,26.00
2023-05-22T11:26:28.282Z,25.51
2023-05-22T11:27:28.052Z,25.51
2023-05-22T11:28:27.984Z,25.41
2023-05-22T11:29:27.984Z,25.51
2023-05-22T11:30:27.964Z,25.62
2023-05-22T11:31:27.969Z,25.57
2023-05-22T11:32:27.938Z,25.57
2023-05-22T11:33:27.932Z,25.51
2023-05-22T11:34:28.074Z,25.46
2023-05-22T11:35:27.903Z,25.51
2023-05-22T11:36:27.904Z,25.57
2023-05-22T11:37:28.011Z,25.41
2023-05-22T11:38:27.880Z,25.51
2023-05-22T11:39:27.874Z,25.57
2023-05-22T11:40:27.847Z,25.57
2023-05-22T11:41:27.841Z,25.62
2023-05-22T11:42:27.826Z,25.14
2023-05-22T11:43:27.813Z,25.41
2023-05-22T11:44:27.862Z,25.08
2023-05-22T11:45:27.796Z,25.24
2023-05-22T11:46:27.861Z,25.30
2023-05-22T11:47:27.778Z,25.57
2023-05-22T11:48:27.753Z,25.14
2023-05-22T11:49:27.744Z,25.14
2023-05-22T11:50:40.967Z,25.30
2023-05-22T11:51:28.781Z,25.19
2023-05-22T11:52:27.714Z,25.19
2023-05-22T11:53:27.856Z,25.14
2023-05-22T11:54:27.689Z,25.08
2023-05-22T11:55:27.673Z,25.14
2023-05-22T11:56:27.661Z,25.30
2023-05-22T11:57:27.651Z,25.14
2023-05-22T11:58:27.634Z,25.14
2023-05-22T11:59:27.621Z,25.14
2023-05-22T12:00:27.647Z,25.14
2023-05-22T12:01:27.602Z,25.03
2023-05-22T12:02:27.696Z,24.76
2023-05-22T12:03:27.686Z,24.76
2023-05-22T12:04:27.563Z,24.65
2023-05-22T12:05:27.550Z,25.14
2023-05-22T12:06:27.559Z,25.14
2023-05-22T12:07:27.527Z,24.81
2023-05-22T12:08:27.517Z,24.71
2023-05-22T12:09:27.634Z,25.35
2023-05-22T12:10:27.491Z,25.08
2023-05-22T12:11:27.489Z,24.71
2023-05-22T12:12:27.460Z,25.08
2023-05-22T12:13:27.461Z,25.14
2023-05-22T12:14:27.440Z,25.14
2023-05-22T12:15:27.442Z,25.14
2023-05-22T12:16:27.492Z,25.14
2023-05-22T12:17:27.457Z,25.14
2023-05-22T12:18:27.405Z,24.76
2023-05-22T12:19:27.459Z,24.76
2023-05-22T12:20:27.366Z,24.71
2023-05-22T12:21:27.362Z,25.14
2023-05-22T12:22:27.357Z,24.44
2023-05-22T12:23:27.332Z,25.14
2023-05-22T12:24:27.352Z,24.71
2023-05-22T12:25:27.430Z,24.81
2023-05-22T12:26:27.295Z,24.65
2023-05-22T12:27:27.291Z,24.71
2023-05-22T12:28:27.515Z,24.81
2023-05-22T12:29:27.250Z,24.71
2023-05-22T12:30:27.251Z,24.65
2023-05-22T12:31:27.268Z,24.76
2023-05-22T12:32:27.261Z,24.65
2023-05-22T12:33:27.201Z,24.71
2023-05-22T12:34:27.194Z,25.19
2023-05-22T12:35:27.189Z,24.92
2023-05-22T12:36:27.177Z,25.08
2023-05-22T12:37:27.161Z,25.30
2023-05-22T12:38:27.148Z,24.71
2023-05-22T12:39:27.133Z,25.14
2023-05-22T12:40:27.126Z,24.71
2023-05-22T12:41:27.226Z,24.71
2023-05-22T12:42:27.104Z,24.76
2023-05-22T12:43:27.098Z,24.71
2023-05-22T12:44:27.064Z,24.65
2023-05-22T12:45:27.052Z,25.14
2023-05-22T12:46:27.062Z,24.71
2023-05-22T12:47:27.114Z,24.71
2023-05-22T12:48:27.224Z,25.14
2023-05-22T12:49:27.007Z,24.71
2023-05-22T12:50:27.000Z,24.71
2023-05-22T12:51:27.012Z,25.08
2023-05-22T12:52:26.986Z,25.03